createdAt,value
2019-04-23T00:01:14.685Z,15.26
2019-04-23T00:03:34.605Z,15.24
2019-04-23T00:06:52.346Z,15.22
2019-04-23T00:08:50.115Z,15.23
2019-04-23T00:11:22.212Z,15.22
2019-04-23T00:13:52.085Z,15.23
2019-04-23T00:16:41.782Z,15.21
2019-04-23T00:18:49.763Z,15.20
2019-04-23T00:21:57.477Z,15.20
2019-04-23T00:25:19.315Z,15.20
2019-04-23T00:27:29.518Z,15.16
2019-04-23T00:30:04.382Z,15.11
2019-04-23T00:40:23.753Z,15.01
2019-04-23T00:45:08.293Z,14.98
2019-04-23T00:47:45.036Z,14.95
2019-04-23T00:52:45.787Z,14.92
2019-04-23T00:55:26.713Z,14.90
2019-04-23T00:57:57.802Z,14.90
2019-04-23T01:05:39.276Z,14.80
2019-04-23T01:08:13.303Z,14.79
2019-04-23T01:10:52.263Z,14.77
2019-04-23T01:13:22.750Z,14.73
2019-04-23T01:15:53.717Z,14.71
2019-04-23T01:18:45.949Z,14.69
2019-04-23T01:20:54.063Z,14.68
2019-04-23T01:23:54.865Z,14.67
2019-04-23T01:26:42.094Z,14.67
2019-04-23T01:29:20.217Z,14.68
2019-04-23T01:31:51.948Z,14.69
2019-04-23T01:34:25.753Z,14.69
2019-04-23T01:36:56.403Z,14.68
2019-04-23T01:39:27.457Z,14.64
2019-04-23T01:42:18.104Z,14.63
2019-04-23T01:44:46.183Z,14.60
2019-04-23T01:47:12.454Z,14.57
2019-04-23T01:49:58.204Z,14.56
2019-04-23T01:52:29.375Z,14.55
2019-04-23T01:54:52.227Z,14.54
2019-04-23T01:57:28.950Z,14.53
2019-04-23T02:00:03.341Z,14.54
2019-04-23T02:02:37.360Z,14.50
2019-04-23T02:05:09.879Z,14.46
2019-04-23T02:07:45.941Z,14.42
2019-04-23T02:12:54.058Z,14.40
2019-04-23T02:15:17.016Z,14.38
2019-04-23T02:18:00.408Z,14.37
2019-04-23T02:23:30.088Z,14.30
2019-04-23T02:25:50.907Z,14.28
2019-04-23T02:28:35.490Z,14.25
2019-04-23T02:33:44.572Z,14.25
2019-04-23T02:38:45.279Z,14.22
2019-04-23T02:43:46.412Z,14.17
2019-04-23T02:46:09.248Z,14.14
2019-04-23T02:49:01.627Z,14.09
2019-04-23T02:51:31.117Z,14.08
2019-04-23T02:56:37.511Z,14.05
2019-04-23T02:59:14.531Z,14.04
2019-04-23T03:01:49.490Z,14.03
2019-04-23T03:06:48.125Z,13.99
2019-04-23T03:09:23.749Z,13.97
2019-04-23T03:14:27.122Z,13.94
2019-04-23T03:19:55.221Z,13.93
2019-04-23T03:22:35.526Z,13.89
2019-04-23T03:27:50.040Z,13.85
2019-04-23T03:32:30.440Z,13.82
2019-04-23T03:34:04.275Z,13.80
2019-04-23T03:38:45.773Z,13.79
2019-04-23T03:43:33.655Z,13.75
2019-04-23T03:46:16.318Z,13.76
2019-04-23T03:51:01.267Z,13.74
2019-04-23T03:54:11.653Z,13.70
2019-04-23T03:56:23.211Z,13.71
2019-04-23T03:58:49.278Z,13.71
2019-04-23T04:09:14.911Z,13.65
2019-04-23T04:11:25.464Z,13.64
2019-04-23T04:14:21.063Z,13.65
2019-04-23T04:16:42.580Z,13.64
2019-04-23T04:19:31.664Z,13.59
2019-04-23T04:21:52.538Z,13.57
2019-04-23T04:26:59.484Z,13.58
2019-04-23T04:29:30.085Z,13.56
2019-04-23T04:34:56.090Z,13.57
2019-04-23T04:39:42.375Z,13.55
2019-04-23T04:42:12.040Z,13.52
2019-04-23T04:44:52.382Z,13.53
2019-04-23T04:47:32.448Z,13.53
2019-04-23T04:49:55.676Z,13.51
2019-04-23T04:52:33.584Z,13.51
2019-04-23T04:54:51.867Z,13.49
2019-04-23T05:00:17.726Z,13.45
2019-04-23T05:05:20.633Z,13.45
2019-04-23T05:08:00.897Z,13.48
2019-04-23T05:12:53.994Z,13.50
2019-04-23T05:15:18.201Z,13.53
2019-04-23T05:18:19.443Z,13.56
2019-04-23T05:23:22.946Z,13.64
2019-04-23T05:25:51.326Z,13.68
2019-04-23T05:28:29.955Z,13.73
2019-04-23T05:31:00.040Z,13.75
2019-04-23T05:33:28.834Z,13.75
2019-04-23T05:36:26.622Z,13.74
2019-04-23T05:38:59.451Z,13.73
2019-04-23T05:43:57.236Z,13.77
2019-04-23T05:49:03.965Z,13.83
2019-04-23T05:51:48.899Z,13.88
2019-04-23T05:54:14.083Z,13.93
2019-04-23T05:56:43.790Z,13.96
2019-04-23T05:59:16.308Z,13.99
2019-04-23T06:04:32.963Z,14.05
2019-04-23T06:07:22.159Z,14.04
2019-04-23T06:09:41.538Z,14.04
2019-04-23T06:14:55.547Z,14.11
2019-04-23T06:17:21.355Z,14.18
2019-04-23T06:20:04.371Z,14.24
2019-04-23T06:22:35.205Z,14.28
2019-04-23T06:25:15.097Z,14.32
2019-04-23T06:27:40.161Z,14.40
2019-04-23T06:30:17.966Z,14.43
2019-04-23T06:32:46.346Z,14.44
2019-04-23T06:35:23.787Z,14.48
2019-04-23T06:43:22.559Z,14.61
2019-04-23T06:45:49.366Z,14.65
2019-04-23T06:48:30.251Z,14.71
2019-04-23T06:51:09.436Z,14.77
2019-04-23T06:53:28.892Z,14.83
2019-04-23T06:56:13.976Z,14.88
2019-04-23T06:58:45.611Z,14.92
2019-04-23T07:01:19.173Z,14.99
2019-04-23T07:03:56.950Z,15.06
2019-04-23T07:06:29.836Z,15.13
2019-04-23T07:11:42.955Z,15.28
2019-04-23T07:14:07.318Z,15.34
2019-04-23T07:16:51.241Z,15.38
2019-04-23T07:19:31.722Z,15.43
2019-04-23T07:22:06.379Z,15.49
2019-04-23T07:24:33.144Z,15.55
2019-04-23T07:27:11.735Z,15.62
2019-04-23T07:29:43.557Z,15.68
2019-04-23T07:32:15.599Z,15.76
2019-04-23T07:35:02.467Z,15.85
2019-04-23T07:37:31.886Z,15.93
2019-04-23T07:46:05.357Z,16.16
2019-04-23T07:48:29.227Z,16.24
2019-04-23T07:51:06.136Z,16.34
2019-04-23T07:53:46.767Z,16.41
2019-04-23T07:56:13.119Z,16.51
2019-04-23T07:58:44.607Z,16.60
2019-04-23T08:01:17.531Z,16.78
2019-04-23T08:03:55.949Z,16.74
2019-04-23T08:06:21.366Z,16.79
2019-04-23T08:09:00.878Z,16.81
2019-04-23T08:11:42.593Z,16.85
2019-04-23T08:14:02.069Z,16.90
2019-04-23T08:16:52.239Z,16.93
2019-04-23T08:19:07.337Z,16.96
2019-04-23T08:21:43.835Z,17.00
2019-04-23T08:24:51.058Z,17.05
2019-04-23T08:27:32.839Z,17.12
2019-04-23T08:29:55.845Z,17.19
2019-04-23T08:32:21.460Z,17.24
2019-04-23T08:40:13.203Z,17.36
2019-04-23T08:43:00.926Z,17.40
2019-04-23T08:45:29.654Z,17.45
2019-04-23T08:48:29.077Z,17.54
2019-04-23T08:53:29.699Z,17.65
2019-04-23T08:55:53.729Z,17.73
2019-04-23T08:58:34.020Z,17.79
2019-04-23T09:00:58.590Z,17.83
2019-04-23T09:03:30.140Z,17.87
2019-04-23T09:06:09.684Z,17.89
2019-04-23T09:08:39.340Z,17.94
2019-04-23T09:16:16.308Z,18.06
2019-04-23T09:18:47.357Z,18.10
2019-04-23T09:21:21.286Z,18.17
2019-04-23T09:24:00.316Z,18.26
2019-04-23T09:26:27.646Z,18.36
2019-04-23T09:29:01.103Z,18.42
2019-04-23T09:32:07.449Z,18.47
2019-04-23T09:34:46.532Z,18.51
2019-04-23T09:37:37.125Z,18.55
2019-04-23T09:40:18.842Z,18.60
2019-04-23T09:45:41.077Z,18.73
2019-04-23T09:48:26.534Z,18.81
2019-04-23T09:50:50.867Z,18.90
2019-04-23T09:53:37.277Z,18.98
2019-04-23T09:55:48.689Z,19.05
2019-04-23T09:58:21.908Z,19.12
2019-04-23T10:01:23.488Z,19.21
2019-04-23T10:03:39.129Z,19.28
2019-04-23T10:06:05.969Z,19.34
2019-04-23T10:08:36.454Z,19.39
2019-04-23T10:11:05.092Z,19.46
2019-04-23T10:13:36.614Z,19.53
2019-04-23T10:16:11.702Z,19.58
2019-04-23T10:18:45.119Z,19.66
2019-04-23T10:21:17.476Z,19.75
2019-04-23T10:23:49.600Z,19.83
2019-04-23T10:26:21.995Z,19.91
2019-04-23T10:28:56.626Z,19.99
2019-04-23T10:31:29.145Z,20.06
2019-04-23T10:34:01.961Z,20.11
2019-04-23T10:36:34.574Z,20.18
2019-04-23T10:39:14.607Z,20.25
2019-04-23T10:41:45.408Z,20.32
2019-04-23T10:44:40.763Z,20.33
2019-04-23T10:48:02.975Z,20.37
2019-04-23T10:50:40.306Z,20.41
2019-04-23T10:53:24.538Z,20.48
2019-04-23T10:55:46.733Z,20.53
2019-04-23T10:58:15.729Z,20.58
2019-04-23T11:00:55.720Z,20.64
2019-04-23T11:03:45.208Z,20.70
2019-04-23T11:08:36.944Z,20.77
2019-04-23T11:11:14.729Z,20.83
2019-04-23T11:13:53.536Z,20.86
2019-04-23T11:16:45.804Z,20.91
2019-04-23T11:24:11.807Z,21.02
2019-04-23T11:26:42.974Z,21.05
2019-04-23T11:29:17.724Z,21.09
2019-04-23T11:31:48.782Z,21.13
2019-04-23T11:36:54.323Z,21.18
2019-04-23T11:39:23.494Z,21.20
2019-04-23T11:41:59.956Z,21.21
2019-04-23T11:44:41.520Z,21.24
2019-04-23T11:47:09.176Z,21.26
2019-04-23T11:52:08.337Z,21.35
2019-04-23T11:54:36.049Z,21.40
2019-04-23T11:59:51.881Z,21.54
2019-04-23T12:02:38.916Z,21.62
2019-04-23T12:08:16.942Z,21.78
2019-04-23T12:11:08.433Z,21.87
2019-04-23T12:13:26.895Z,21.92
2019-04-23T12:21:12.924Z,22.05
2019-04-23T12:26:29.749Z,22.14
2019-04-23T12:28:53.114Z,22.19
2019-04-23T12:31:28.407Z,22.26
2019-04-23T12:34:01.077Z,22.40
2019-04-23T12:36:37.713Z,22.70
2019-04-23T12:39:11.361Z,22.81
2019-04-23T12:41:43.333Z,22.90
2019-04-23T12:44:31.564Z,22.88
2019-04-23T12:46:51.507Z,22.78
2019-04-23T12:49:34.788Z,22.69
2019-04-23T12:51:53.782Z,22.68
2019-04-23T12:54:48.368Z,22.83
2019-04-23T12:57:05.305Z,23.00
2019-04-23T12:59:28.648Z,23.21
2019-04-23T13:02:15.503Z,23.34
2019-04-23T13:04:42.086Z,23.36
2019-04-23T13:07:17.559Z,23.29
2019-04-23T13:10:01.537Z,23.13
2019-04-23T13:12:32.820Z,22.99
2019-04-23T13:14:56.082Z,22.85
2019-04-23T13:20:00.498Z,22.65
2019-04-23T13:28:06.473Z,22.29
2019-04-23T13:30:51.332Z,22.17
2019-04-23T13:33:31.877Z,22.09
2019-04-23T13:41:01.461Z,21.86
2019-04-23T13:43:39.743Z,21.84
2019-04-23T13:48:30.080Z,21.83
2019-04-23T13:51:19.782Z,21.84
2019-04-23T13:53:53.560Z,21.88
2019-04-23T13:56:47.236Z,21.87
2019-04-23T13:58:51.227Z,22.02
2019-04-23T14:04:00.119Z,22.15
2019-04-23T14:09:34.312Z,22.12
2019-04-23T14:11:30.745Z,22.07
2019-04-23T14:14:25.022Z,22.06
2019-04-23T14:16:59.760Z,22.03
2019-04-23T14:19:21.548Z,22.02
2019-04-23T14:22:18.451Z,22.00
2019-04-23T14:24:38.914Z,21.94
2019-04-23T14:27:09.611Z,21.86
2019-04-23T14:29:42.861Z,21.75
2019-04-23T14:32:20.827Z,21.65
2019-04-23T14:34:54.561Z,21.56
2019-04-23T14:39:52.369Z,21.35
2019-04-23T14:42:36.442Z,21.35
2019-04-23T14:45:13.099Z,21.28
2019-04-23T14:50:22.901Z,21.19
2019-04-23T14:52:50.438Z,21.15
2019-04-23T14:55:40.586Z,21.13
2019-04-23T14:57:55.814Z,21.10
2019-04-23T15:02:59.127Z,21.09
2019-04-23T15:05:27.654Z,21.08
2019-04-23T15:07:58.498Z,21.08
2019-04-23T15:10:32.586Z,21.08
2019-04-23T15:13:08.659Z,21.07
2019-04-23T15:15:37.802Z,21.09
2019-04-23T15:18:28.451Z,21.23
2019-04-23T15:21:29.206Z,21.46
2019-04-23T15:27:10.355Z,22.01
2019-04-23T15:28:20.300Z,22.38
2019-04-23T15:31:21.242Z,22.74
2019-04-23T15:36:38.916Z,23.35
2019-04-23T15:39:13.798Z,23.59
2019-04-23T15:41:40.470Z,23.87
2019-04-23T15:44:14.809Z,24.04
2019-04-23T15:51:52.957Z,24.32
2019-04-23T15:54:29.950Z,24.33
2019-04-23T15:56:55.134Z,24.20
2019-04-23T15:59:43.940Z,24.04
2019-04-23T16:01:41.079Z,23.96
2019-04-23T16:04:05.344Z,23.98
2019-04-23T16:06:38.793Z,23.93
2019-04-23T16:09:38.780Z,23.88
2019-04-23T16:12:03.565Z,23.73
2019-04-23T16:14:58.484Z,23.56
2019-04-23T16:20:54.469Z,22.90
2019-04-23T16:22:55.226Z,22.58
2019-04-23T16:25:26.391Z,22.29
2019-04-23T16:28:09.358Z,22.06
2019-04-23T16:30:39.752Z,21.91
2019-04-23T16:36:07.385Z,21.63
2019-04-23T16:38:45.342Z,21.55
2019-04-23T16:41:07.650Z,21.46
2019-04-23T16:43:38.253Z,21.37
2019-04-23T16:46:11.936Z,21.27
2019-04-23T16:49:02.853Z,21.13
2019-04-23T16:53:46.034Z,20.88
2019-04-23T16:56:25.974Z,20.79
2019-04-23T16:59:10.297Z,20.69
2019-04-23T17:01:28.061Z,20.60
2019-04-23T17:04:03.656Z,20.52
2019-04-23T17:06:36.119Z,20.43
2019-04-23T17:09:09.521Z,20.34
2019-04-23T17:11:41.654Z,20.25
2019-04-23T17:14:13.369Z,20.18
2019-04-23T17:16:42.461Z,20.11
2019-04-23T17:19:25.603Z,20.06
2019-04-23T17:21:58.166Z,20.03
2019-04-23T17:24:23.292Z,19.98
2019-04-23T17:27:00.866Z,19.92
2019-04-23T17:29:35.233Z,19.86
2019-04-23T17:32:06.040Z,19.79
2019-04-23T17:40:08.390Z,19.67
2019-04-23T17:42:56.735Z,19.63
2019-04-23T17:48:12.871Z,19.57
2019-04-23T17:50:52.325Z,19.55
2019-04-23T17:53:26.531Z,19.52
2019-04-23T18:01:31.205Z,19.41
2019-04-23T18:04:22.593Z,19.36
2019-04-23T18:06:57.637Z,19.31
2019-04-23T18:09:27.794Z,19.26
2019-04-23T18:14:16.556Z,19.17
2019-04-23T18:16:57.575Z,19.08
2019-04-23T18:19:37.679Z,18.98
2019-04-23T18:22:22.218Z,18.91
2019-04-23T18:25:17.120Z,18.87
2019-04-23T18:36:08.078Z,18.64
2019-04-23T18:38:46.605Z,18.60
2019-04-23T18:41:10.729Z,18.54
2019-04-23T18:44:13.330Z,18.49
2019-04-23T18:46:43.549Z,18.42
2019-04-23T18:49:20.228Z,18.34
2019-04-23T18:51:55.468Z,18.30
2019-04-23T18:54:24.383Z,18.26
2019-04-23T18:57:36.796Z,18.21
2019-04-23T18:59:37.220Z,18.17
2019-04-23T19:02:17.330Z,18.11
2019-04-23T19:05:04.687Z,18.05
2019-04-23T19:10:31.662Z,17.86
2019-04-23T19:13:12.664Z,17.79
2019-04-23T19:15:38.281Z,17.71
2019-04-23T19:18:14.553Z,17.67
2019-04-23T19:23:28.871Z,17.58
2019-04-23T19:25:49.827Z,17.53
2019-04-23T19:31:20.147Z,17.46
2019-04-23T19:34:14.447Z,17.44
2019-04-23T19:36:52.650Z,17.40
2019-04-23T19:39:21.412Z,17.36
2019-04-23T19:41:55.391Z,17.33
2019-04-23T19:47:02.791Z,17.23
2019-04-23T19:49:32.697Z,17.20
2019-04-23T19:52:00.988Z,17.18
2019-04-23T19:54:42.677Z,17.14
2019-04-23T19:57:22.280Z,17.09
2019-04-23T19:59:45.062Z,17.09
2019-04-23T20:02:18.152Z,17.08
2019-04-23T20:04:47.184Z,17.07
2019-04-23T20:09:51.761Z,16.99
2019-04-23T20:12:26.815Z,16.94
2019-04-23T20:14:58.521Z,16.91
2019-04-23T20:17:52.329Z,16.90
2019-04-23T20:20:10.322Z,16.89
2019-04-23T20:22:48.512Z,16.88
2019-04-23T20:28:01.985Z,16.82
2019-04-23T20:31:05.412Z,16.81
2019-04-23T20:35:56.663Z,16.73
2019-04-23T20:38:31.467Z,16.69
2019-04-23T20:41:05.779Z,16.63
2019-04-23T20:49:08.909Z,16.55
2019-04-23T20:51:08.228Z,16.52
2019-04-23T20:53:50.580Z,16.48
2019-04-23T20:58:59.731Z,16.43
2019-04-23T21:02:02.547Z,16.41
2019-04-23T21:04:28.192Z,16.40
2019-04-23T21:06:57.957Z,16.39
2019-04-23T21:09:44.650Z,16.40
2019-04-23T21:12:18.625Z,16.40
2019-04-23T21:15:03.163Z,16.38
2019-04-23T21:17:14.311Z,16.36
2019-04-23T21:20:01.133Z,16.37
2019-04-23T21:30:03.042Z,16.26
2019-04-23T21:35:16.765Z,16.19
2019-04-23T21:41:02.251Z,16.13
2019-04-23T21:43:52.755Z,16.12
2019-04-23T21:46:17.096Z,16.08
2019-04-23T21:51:28.450Z,16.04
2019-04-23T21:58:57.987Z,15.95
2019-04-23T22:01:32.107Z,15.94
2019-04-23T22:06:47.499Z,15.86
2019-04-23T22:24:21.202Z,15.67
2019-04-23T22:26:54.806Z,15.64
2019-04-23T22:29:35.824Z,15.59
2019-04-23T22:31:53.813Z,15.56
2019-04-23T22:34:43.207Z,15.52
2019-04-23T22:39:45.928Z,15.52
2019-04-23T22:42:36.354Z,15.52
2019-04-23T22:47:28.428Z,15.52
2019-04-23T22:52:33.875Z,15.50
2019-04-23T22:55:07.302Z,15.48
2019-04-23T23:06:10.671Z,15.36
2019-04-23T23:08:31.698Z,15.32
2019-04-23T23:10:57.513Z,15.31
2019-04-23T23:13:35.358Z,15.30
2019-04-23T23:21:19.193Z,15.22
2019-04-23T23:23:39.509Z,15.24
2019-04-23T23:28:45.360Z,15.26
2019-04-23T23:33:54.195Z,15.26
2019-04-23T23:36:28.441Z,15.27
2019-04-23T23:41:35.845Z,15.28
2019-04-23T23:49:13.749Z,15.34
2019-04-23T23:51:45.078Z,15.35
2019-04-23T23:57:01.377Z,15.33
2019-04-23T23:59:27.084Z,15.29
